sensor_id;sensor_type;location;lat;lon;timestamp;temperature;humidity
6988;DHT22;3534;49.960;8.018;2023-09-19T00:01:39;19.40;99.90
6988;DHT22;3534;49.960;8.018;2023-09-19T00:04:07;19.30;99.90
6988;DHT22;3534;49.960;8.018;2023-09-19T00:06:35;19.30;99.90
6988;DHT22;3534;49.960;8.018;2023-09-19T00:09:02;19.30;99.90
6988;DHT22;3534;49.960;8.018;2023-09-19T00:11:29;19.20;99.90
6988;DHT22;3534;49.960;8.018;2023-09-19T00:13:56;19.20;99.90
6988;DHT22;3534;49.960;8.018;2023-09-19T00:16:24;19.10;99.90
6988;DHT22;3534;49.960;8.018;2023-09-19T00:18:51;19.10;99.90
6988;DHT22;3534;49.960;8.018;2023-09-19T00:21:19;19.10;99.90
6988;DHT22;3534;49.960;8.018;2023-09-19T00:23:46;19.00;99.90
6988;DHT22;3534;49.960;8.018;2023-09-19T00:26:13;19.00;99.90
6988;DHT22;3534;49.960;8.018;2023-09-19T00:28:40;19.00;99.90
6988;DHT22;3534;49.960;8.018;2023-09-19T00:31:08;19.00;99.90
6988;DHT22;3534;49.960;8.018;2023-09-19T00:33:35;19.00;99.90
6988;DHT22;3534;49.960;8.018;2023-09-19T00:36:02;19.00;99.90
6988;DHT22;3534;49.960;8.018;2023-09-19T00:38:32;18.90;99.90
6988;DHT22;3534;49.960;8.018;2023-09-19T00:40:59;18.90;99.90
6988;DHT22;3534;49.960;8.018;2023-09-19T00:43:26;18.90;99.90
6988;DHT22;3534;49.960;8.018;2023-09-19T00:45:54;18.80;99.90
6988;DHT22;3534;49.960;8.018;2023-09-19T00:48:22;18.90;99.90
6988;DHT22;3534;49.960;8.018;2023-09-19T00:50:51;18.90;99.90
6988;DHT22;3534;49.960;8.018;2023-09-19T00:53:21;18.80;99.90
6988;DHT22;3534;49.960;8.018;2023-09-19T00:55:50;18.90;99.90
6988;DHT22;3534;49.960;8.018;2023-09-19T00:58:18;18.80;99.90
6988;DHT22;3534;49.960;8.018;2023-09-19T01:00:46;18.80;99.90
6988;DHT22;3534;49.960;8.018;2023-09-19T01:03:14;18.80;99.90
6988;DHT22;3534;49.960;8.018;2023-09-19T01:05:40;18.80;99.90
6988;DHT22;3534;49.960;8.018;2023-09-19T01:08:08;18.70;99.90
6988;DHT22;3534;49.960;8.018;2023-09-19T01:10:41;18.70;99.90
6988;DHT22;3534;49.960;8.018;2023-09-19T01:13:16;18.70;99.90
6988;DHT22;3534;49.960;8.018;2023-09-19T01:15:51;18.70;99.90
6988;DHT22;3534;49.960;8.018;2023-09-19T01:18:27;18.60;99.90
6988;DHT22;3534;49.960;8.018;2023-09-19T01:21:03;18.60;99.90
6988;DHT22;3534;49.960;8.018;2023-09-19T01:23:44;18.60;99.90
6988;DHT22;3534;49.960;8.018;2023-09-19T01:26:31;18.50;99.90
6988;DHT22;3534;49.960;8.018;2023-09-19T01:29:17;18.50;99.90
6988;DHT22;3534;49.960;8.018;2023-09-19T01:32:02;18.50;99.90
6988;DHT22;3534;49.960;8.018;2023-09-19T01:34:43;18.50;99.90
6988;DHT22;3534;49.960;8.018;2023-09-19T01:37:11;18.40;99.90
6988;DHT22;3534;49.960;8.018;2023-09-19T01:39:37;18.40;99.90
6988;DHT22;3534;49.960;8.018;2023-09-19T01:42:10;18.40;99.90
6988;DHT22;3534;49.960;8.018;2023-09-19T01:44:44;18.40;99.90
6988;DHT22;3534;49.960;8.018;2023-09-19T01:47:26;18.40;99.90
6988;DHT22;3534;49.960;8.018;2023-09-19T01:49:58;18.30;99.90
6988;DHT22;3534;49.960;8.018;2023-09-19T01:52:29;18.30;99.90
6988;DHT22;3534;49.960;8.018;2023-09-19T01:55:02;18.30;99.90
6988;DHT22;3534;49.960;8.018;2023-09-19T01:57:35;18.20;99.90
6988;DHT22;3534;49.960;8.018;2023-09-19T02:00:08;18.20;99.90
6988;DHT22;3534;49.960;8.018;2023-09-19T02:02:40;18.20;99.90
6988;DHT22;3534;49.960;8.018;2023-09-19T02:05:08;18.20;99.90
6988;DHT22;3534;49.960;8.018;2023-09-19T02:07:36;18.10;99.90
6988;DHT22;3534;49.960;8.018;2023-09-19T02:10:04;18.10;99.90
6988;DHT22;3534;49.960;8.018;2023-09-19T02:12:31;18.10;99.90
6988;DHT22;3534;49.960;8.018;2023-09-19T02:14:58;18.10;99.90
6988;DHT22;3534;49.960;8.018;2023-09-19T02:17:24;18.10;99.90
6988;DHT22;3534;49.960;8.018;2023-09-19T02:19:53;18.10;99.90
6988;DHT22;3534;49.960;8.018;2023-09-19T02:22:20;18.10;99.90
6988;DHT22;3534;49.960;8.018;2023-09-19T02:24:48;18.00;99.90
6988;DHT22;3534;49.960;8.018;2023-09-19T02:27:14;18.10;99.90
6988;DHT22;3534;49.960;8.018;2023-09-19T02:29:42;18.10;99.90
6988;DHT22;3534;49.960;8.018;2023-09-19T02:32:09;18.10;99.90
6988;DHT22;3534;49.960;8.018;2023-09-19T02:34:36;18.10;99.90
6988;DHT22;3534;49.960;8.018;2023-09-19T02:37:06;18.10;99.90
6988;DHT22;3534;49.960;8.018;2023-09-19T02:39:34;18.10;99.90
6988;DHT22;3534;49.960;8.018;2023-09-19T02:42:01;18.10;99.90
6988;DHT22;3534;49.960;8.018;2023-09-19T02:44:29;18.10;99.90
6988;DHT22;3534;49.960;8.018;2023-09-19T02:46:56;18.10;99.90
6988;DHT22;3534;49.960;8.018;2023-09-19T02:49:23;18.10;99.90
6988;DHT22;3534;49.960;8.018;2023-09-19T02:51:50;18.10;99.90
6988;DHT22;3534;49.960;8.018;2023-09-19T02:54:18;18.10;99.90
6988;DHT22;3534;49.960;8.018;2023-09-19T02:56:46;18.10;99.90
6988;DHT22;3534;49.960;8.018;2023-09-19T02:59:13;18.10;99.90
6988;DHT22;3534;49.960;8.018;2023-09-19T03:01:40;18.10;99.90
6988;DHT22;3534;49.960;8.018;2023-09-19T03:04:09;18.10;99.90
6988;DHT22;3534;49.960;8.018;2023-09-19T03:06:36;18.00;99.90
6988;DHT22;3534;49.960;8.018;2023-09-19T03:09:04;18.10;99.90
6988;DHT22;3534;49.960;8.018;2023-09-19T03:11:33;18.10;99.90
6988;DHT22;3534;49.960;8.018;2023-09-19T03:14:00;18.00;99.90
6988;DHT22;3534;49.960;8.018;2023-09-19T03:16:26;18.00;99.90
6988;DHT22;3534;49.960;8.018;2023-09-19T03:18:53;17.90;99.90
6988;DHT22;3534;49.960;8.018;2023-09-19T03:21:19;17.90;99.90
6988;DHT22;3534;49.960;8.018;2023-09-19T03:23:47;17.90;99.90
6988;DHT22;3534;49.960;8.018;2023-09-19T03:26:14;17.90;99.90
6988;DHT22;3534;49.960;8.018;2023-09-19T03:28:42;17.80;99.90
6988;DHT22;3534;49.960;8.018;2023-09-19T03:31:11;17.80;99.90
6988;DHT22;3534;49.960;8.018;2023-09-19T03:33:38;17.80;99.90
6988;DHT22;3534;49.960;8.018;2023-09-19T03:36:05;17.80;99.90
6988;DHT22;3534;49.960;8.018;2023-09-19T03:38:32;17.80;99.90
6988;DHT22;3534;49.960;8.018;2023-09-19T03:40:59;17.80;99.90
6988;DHT22;3534;49.960;8.018;2023-09-19T03:43:26;17.70;99.90
6988;DHT22;3534;49.960;8.018;2023-09-19T03:45:54;17.70;99.90
6988;DHT22;3534;49.960;8.018;2023-09-19T03:48:21;17.70;99.90
6988;DHT22;3534;49.960;8.018;2023-09-19T03:50:48;17.70;99.90
6988;DHT22;3534;49.960;8.018;2023-09-19T03:53:15;17.70;99.90
6988;DHT22;3534;49.960;8.018;2023-09-19T03:55:41;17.60;99.90
6988;DHT22;3534;49.960;8.018;2023-09-19T03:58:10;17.60;99.90
6988;DHT22;3534;49.960;8.018;2023-09-19T04:00:37;17.70;99.90
6988;DHT22;3534;49.960;8.018;2023-09-19T04:03:05;17.60;99.90
6988;DHT22;3534;49.960;8.018;2023-09-19T04:05:33;17.70;99.90
6988;DHT22;3534;49.960;8.018;2023-09-19T04:08:00;17.70;99.90
6988;DHT22;3534;49.960;8.018;2023-09-19T04:10:26;17.70;99.90
6988;DHT22;3534;49.960;8.018;2023-09-19T04:12:54;17.70;99.90
6988;DHT22;3534;49.960;8.018;2023-09-19T04:15:21;17.60;99.90
6988;DHT22;3534;49.960;8.018;2023-09-19T04:17:48;17.60;99.90
6988;DHT22;3534;49.960;8.018;2023-09-19T04:20:17;17.60;99.90
6988;DHT22;3534;49.960;8.018;2023-09-19T04:22:45;17.60;99.90
6988;DHT22;3534;49.960;8.018;2023-09-19T04:25:11;17.70;99.90
6988;DHT22;3534;49.960;8.018;2023-09-19T04:27:38;17.60;99.90
6988;DHT22;3534;49.960;8.018;2023-09-19T04:30:06;17.60;99.90
6988;DHT22;3534;49.960;8.018;2023-09-19T04:32:35;17.60;99.90
6988;DHT22;3534;49.960;8.018;2023-09-19T04:35:04;17.60;99.90
6988;DHT22;3534;49.960;8.018;2023-09-19T04:37:33;17.60;99.90
6988;DHT22;3534;49.960;8.018;2023-09-19T04:40:00;17.50;99.90
6988;DHT22;3534;49.960;8.018;2023-09-19T04:42:30;17.50;99.90
6988;DHT22;3534;49.960;8.018;2023-09-19T04:44:56;17.50;99.90
6988;DHT22;3534;49.960;8.018;2023-09-19T04:47:25;17.50;99.90
6988;DHT22;3534;49.960;8.018;2023-09-19T04:49:51;17.60;99.90
6988;DHT22;3534;49.960;8.018;2023-09-19T04:52:18;17.60;99.90
6988;DHT22;3534;49.960;8.018;2023-09-19T04:54:47;17.50;99.90
6988;DHT22;3534;49.960;8.018;2023-09-19T04:57:14;17.50;99.90
6988;DHT22;3534;49.960;8.018;2023-09-19T04:59:40;17.50;99.90
6988;DHT22;3534;49.960;8.018;2023-09-19T05:02:07;17.50;99.90
6988;DHT22;3534;49.960;8.018;2023-09-19T05:04:35;17.50;99.90
6988;DHT22;3534;49.960;8.018;2023-09-19T05:07:01;17.50;99.90
6988;DHT22;3534;49.960;8.018;2023-09-19T05:09:29;17.40;99.90
6988;DHT22;3534;49.960;8.018;2023-09-19T05:11:57;17.40;99.90
6988;DHT22;3534;49.960;8.018;2023-09-19T05:14:24;17.30;99.90
6988;DHT22;3534;49.960;8.018;2023-09-19T05:16:50;17.30;99.90
6988;DHT22;3534;49.960;8.018;2023-09-19T05:19:17;17.30;99.90
6988;DHT22;3534;49.960;8.018;2023-09-19T05:21:43;17.30;99.90
6988;DHT22;3534;49.960;8.018;2023-09-19T05:24:11;17.30;99.90
6988;DHT22;3534;49.960;8.018;2023-09-19T05:26:40;17.30;99.90
6988;DHT22;3534;49.960;8.018;2023-09-19T05:29:08;17.30;99.90
6988;DHT22;3534;49.960;8.018;2023-09-19T05:31:34;17.20;99.90
6988;DHT22;3534;49.960;8.018;2023-09-19T05:34:06;17.30;99.90
6988;DHT22;3534;49.960;8.018;2023-09-19T05:36:33;17.30;99.90
6988;DHT22;3534;49.960;8.018;2023-09-19T05:38:59;17.20;99.90
6988;DHT22;3534;49.960;8.018;2023-09-19T05:41:26;17.20;99.90
6988;DHT22;3534;49.960;8.018;2023-09-19T05:43:52;17.20;99.90
6988;DHT22;3534;49.960;8.018;2023-09-19T05:46:21;17.20;99.90
6988;DHT22;3534;49.960;8.018;2023-09-19T05:48:47;17.20;99.90
6988;DHT22;3534;49.960;8.018;2023-09-19T05:51:15;17.20;99.90
6988;DHT22;3534;49.960;8.018;2023-09-19T05:53:43;17.20;99.90
6988;DHT22;3534;49.960;8.018;2023-09-19T05:56:10;17.20;99.90
6988;DHT22;3534;49.960;8.018;2023-09-19T05:58:36;17.20;99.90
6988;DHT22;3534;49.960;8.018;2023-09-19T06:01:04;17.20;99.90
6988;DHT22;3534;49.960;8.018;2023-09-19T06:03:34;17.20;99.90
6988;DHT22;3534;49.960;8.018;2023-09-19T06:06:01;17.10;99.90
6988;DHT22;3534;49.960;8.018;2023-09-19T06:08:28;17.20;99.90
6988;DHT22;3534;49.960;8.018;2023-09-19T06:10:56;17.20;99.90
6988;DHT22;3534;49.960;8.018;2023-09-19T06:13:22;17.20;99.90
6988;DHT22;3534;49.960;8.018;2023-09-19T06:15:52;17.20;99.90
6988;DHT22;3534;49.960;8.018;2023-09-19T06:18:19;17.20;99.90
6988;DHT22;3534;49.960;8.018;2023-09-19T06:20:48;17.30;99.90
6988;DHT22;3534;49.960;8.018;2023-09-19T06:23:16;17.30;99.90
6988;DHT22;3534;49.960;8.018;2023-09-19T06:25:43;17.30;99.90
6988;DHT22;3534;49.960;8.018;2023-09-19T06:28:10;17.30;99.90
6988;DHT22;3534;49.960;8.018;2023-09-19T06:30:38;17.40;99.90
6988;DHT22;3534;49.960;8.018;2023-09-19T06:33:06;17.40;99.90
6988;DHT22;3534;49.960;8.018;2023-09-19T06:35:33;17.40;99.90
6988;DHT22;3534;49.960;8.018;2023-09-19T06:38:04;17.40;99.90
6988;DHT22;3534;49.960;8.018;2023-09-19T06:40:31;17.50;99.90
6988;DHT22;3534;49.960;8.018;2023-09-19T06:42:58;17.50;99.90
6988;DHT22;3534;49.960;8.018;2023-09-19T06:45:27;17.50;99.90
6988;DHT22;3534;49.960;8.018;2023-09-19T06:47:54;17.50;99.90
6988;DHT22;3534;49.960;8.018;2023-09-19T06:50:23;17.50;99.90
6988;DHT22;3534;49.960;8.018;2023-09-19T06:52:53;17.50;99.90
6988;DHT22;3534;49.960;8.018;2023-09-19T06:55:22;17.50;99.90
6988;DHT22;3534;49.960;8.018;2023-09-19T06:57:50;17.50;99.90
6988;DHT22;3534;49.960;8.018;2023-09-19T07:00:20;17.50;99.90
6988;DHT22;3534;49.960;8.018;2023-09-19T07:02:55;17.60;99.90
6988;DHT22;3534;49.960;8.018;2023-09-19T07:05:22;17.60;99.90
6988;DHT22;3534;49.960;8.018;2023-09-19T07:07:49;17.60;99.90
6988;DHT22;3534;49.960;8.018;2023-09-19T07:10:16;17.60;99.90
6988;DHT22;3534;49.960;8.018;2023-09-19T07:12:45;17.60;99.90
6988;DHT22;3534;49.960;8.018;2023-09-19T07:15:12;17.60;99.90
6988;DHT22;3534;49.960;8.018;2023-09-19T07:17:39;17.50;99.90
6988;DHT22;3534;49.960;8.018;2023-09-19T07:20:06;17.50;99.90
6988;DHT22;3534;49.960;8.018;2023-09-19T07:22:33;17.70;99.90
6988;DHT22;3534;49.960;8.018;2023-09-19T07:25:00;17.60;99.90
6988;DHT22;3534;49.960;8.018;2023-09-19T07:27:27;17.60;99.90
6988;DHT22;3534;49.960;8.018;2023-09-19T07:29:55;17.60;99.90
6988;DHT22;3534;49.960;8.018;2023-09-19T07:32:22;17.60;99.90
6988;DHT22;3534;49.960;8.018;2023-09-19T07:34:48;17.60;99.90
6988;DHT22;3534;49.960;8.018;2023-09-19T07:37:15;17.60;99.90
6988;DHT22;3534;49.960;8.018;2023-09-19T07:39:42;17.60;99.90
6988;DHT22;3534;49.960;8.018;2023-09-19T07:42:10;17.70;99.90
6988;DHT22;3534;49.960;8.018;2023-09-19T07:44:43;17.70;99.90
6988;DHT22;3534;49.960;8.018;2023-09-19T07:47:13;17.70;99.90
6988;DHT22;3534;49.960;8.018;2023-09-19T07:49:40;17.70;99.90
6988;DHT22;3534;49.960;8.018;2023-09-19T07:52:07;17.70;99.90
6988;DHT22;3534;49.960;8.018;2023-09-19T07:54:34;17.80;99.90
6988;DHT22;3534;49.960;8.018;2023-09-19T07:57:02;17.80;99.90
6988;DHT22;3534;49.960;8.018;2023-09-19T07:59:28;17.80;99.90
6988;DHT22;3534;49.960;8.018;2023-09-19T08:01:55;17.80;99.90
6988;DHT22;3534;49.960;8.018;2023-09-19T08:04:24;17.90;99.90
6988;DHT22;3534;49.960;8.018;2023-09-19T08:06:52;17.90;99.90
6988;DHT22;3534;49.960;8.018;2023-09-19T08:09:18;17.90;99.90
6988;DHT22;3534;49.960;8.018;2023-09-19T08:11:46;18.00;99.90
6988;DHT22;3534;49.960;8.018;2023-09-19T08:14:13;18.00;99.90
6988;DHT22;3534;49.960;8.018;2023-09-19T08:16:40;18.00;99.90
6988;DHT22;3534;49.960;8.018;2023-09-19T08:19:09;18.00;99.90
6988;DHT22;3534;49.960;8.018;2023-09-19T08:21:38;18.00;99.90
6988;DHT22;3534;49.960;8.018;2023-09-19T08:24:05;18.10;99.90
6988;DHT22;3534;49.960;8.018;2023-09-19T08:26:31;18.10;99.90
6988;DHT22;3534;49.960;8.018;2023-09-19T08:28:58;18.10;99.90
6988;DHT22;3534;49.960;8.018;2023-09-19T08:31:30;18.20;99.90
6988;DHT22;3534;49.960;8.018;2023-09-19T08:33:57;18.20;99.90
6988;DHT22;3534;49.960;8.018;2023-09-19T08:36:23;18.20;99.90
6988;DHT22;3534;49.960;8.018;2023-09-19T08:38:51;18.30;99.90
6988;DHT22;3534;49.960;8.018;2023-09-19T08:41:18;18.30;99.90
6988;DHT22;3534;49.960;8.018;2023-09-19T08:43:45;18.20;99.90
6988;DHT22;3534;49.960;8.018;2023-09-19T08:46:15;18.30;99.90
6988;DHT22;3534;49.960;8.018;2023-09-19T08:48:46;18.30;99.90
6988;DHT22;3534;49.960;8.018;2023-09-19T08:51:18;18.40;99.90
6988;DHT22;3534;49.960;8.018;2023-09-19T08:53:54;18.40;99.90
6988;DHT22;3534;49.960;8.018;2023-09-19T08:56:26;18.50;99.90
6988;DHT22;3534;49.960;8.018;2023-09-19T08:58:57;18.50;99.90
6988;DHT22;3534;49.960;8.018;2023-09-19T09:01:27;18.50;99.90
6988;DHT22;3534;49.960;8.018;2023-09-19T09:03:55;18.50;99.90
6988;DHT22;3534;49.960;8.018;2023-09-19T09:06:24;18.60;99.90
6988;DHT22;3534;49.960;8.018;2023-09-19T09:08:52;18.60;99.90
6988;DHT22;3534;49.960;8.018;2023-09-19T09:11:20;18.60;99.90
6988;DHT22;3534;49.960;8.018;2023-09-19T09:13:50;18.60;99.90
6988;DHT22;3534;49.960;8.018;2023-09-19T09:16:17;18.70;99.90
6988;DHT22;3534;49.960;8.018;2023-09-19T09:18:44;18.70;99.90
6988;DHT22;3534;49.960;8.018;2023-09-19T09:21:12;18.70;99.90
6988;DHT22;3534;49.960;8.018;2023-09-19T09:23:39;18.80;99.90
6988;DHT22;3534;49.960;8.018;2023-09-19T09:26:07;18.80;99.90
6988;DHT22;3534;49.960;8.018;2023-09-19T09:28:35;18.80;99.90
6988;DHT22;3534;49.960;8.018;2023-09-19T09:31:04;18.90;99.90
6988;DHT22;3534;49.960;8.018;2023-09-19T09:33:34;18.90;99.90
6988;DHT22;3534;49.960;8.018;2023-09-19T09:36:02;18.90;99.90
6988;DHT22;3534;49.960;8.018;2023-09-19T09:38:43;18.90;99.90
6988;DHT22;3534;49.960;8.018;2023-09-19T09:41:12;19.00;99.90
6988;DHT22;3534;49.960;8.018;2023-09-19T09:43:42;19.00;99.90
6988;DHT22;3534;49.960;8.018;2023-09-19T09:46:13;19.00;99.90
6988;DHT22;3534;49.960;8.018;2023-09-19T09:48:59;19.00;99.90
6988;DHT22;3534;49.960;8.018;2023-09-19T09:51:51;19.10;99.90
6988;DHT22;3534;49.960;8.018;2023-09-19T09:54:25;19.10;99.90
6988;DHT22;3534;49.960;8.018;2023-09-19T09:57:01;19.10;99.90
6988;DHT22;3534;49.960;8.018;2023-09-19T09:59:49;19.20;99.90
6988;DHT22;3534;49.960;8.018;2023-09-19T10:02:17;19.20;99.90
6988;DHT22;3534;49.960;8.018;2023-09-19T10:04:55;19.20;99.90
6988;DHT22;3534;49.960;8.018;2023-09-19T10:07:34;19.20;99.90
6988;DHT22;3534;49.960;8.018;2023-09-19T10:10:05;19.30;99.90
6988;DHT22;3534;49.960;8.018;2023-09-19T10:12:44;19.30;99.90
6988;DHT22;3534;49.960;8.018;2023-09-19T10:15:15;19.30;99.90
6988;DHT22;3534;49.960;8.018;2023-09-19T10:17:46;19.40;99.90
6988;DHT22;3534;49.960;8.018;2023-09-19T10:20:13;19.40;99.90
6988;DHT22;3534;49.960;8.018;2023-09-19T10:22:59;19.50;99.90
6988;DHT22;3534;49.960;8.018;2023-09-19T10:25:27;19.60;99.90
6988;DHT22;3534;49.960;8.018;2023-09-19T10:27:57;19.70;99.90
6988;DHT22;3534;49.960;8.018;2023-09-19T10:30:27;19.70;99.90
6988;DHT22;3534;49.960;8.018;2023-09-19T10:33:02;19.80;99.90
6988;DHT22;3534;49.960;8.018;2023-09-19T10:35:30;19.90;99.90
6988;DHT22;3534;49.960;8.018;2023-09-19T10:38:00;19.90;99.90
6988;DHT22;3534;49.960;8.018;2023-09-19T10:40:28;20.00;99.90
6988;DHT22;3534;49.960;8.018;2023-09-19T10:43:02;20.00;99.90
6988;DHT22;3534;49.960;8.018;2023-09-19T10:45:33;20.10;99.90
6988;DHT22;3534;49.960;8.018;2023-09-19T10:48:01;20.20;99.90
6988;DHT22;3534;49.960;8.018;2023-09-19T10:50:33;20.20;99.90
6988;DHT22;3534;49.960;8.018;2023-09-19T10:53:04;20.30;99.90
6988;DHT22;3534;49.960;8.018;2023-09-19T10:55:34;20.30;99.90
6988;DHT22;3534;49.960;8.018;2023-09-19T10:58:04;20.40;99.90
6988;DHT22;3534;49.960;8.018;2023-09-19T11:00:53;20.40;99.90
6988;DHT22;3534;49.960;8.018;2023-09-19T11:03:21;20.40;99.90
6988;DHT22;3534;49.960;8.018;2023-09-19T11:06:10;20.40;99.90
6988;DHT22;3534;49.960;8.018;2023-09-19T11:08:52;20.50;99.90
6988;DHT22;3534;49.960;8.018;2023-09-19T11:11:48;20.60;99.90
6988;DHT22;3534;49.960;8.018;2023-09-19T11:14:40;20.60;99.90
6988;DHT22;3534;49.960;8.018;2023-09-19T11:17:41;20.70;99.90
6988;DHT22;3534;49.960;8.018;2023-09-19T11:20:25;20.80;99.90
6988;DHT22;3534;49.960;8.018;2023-09-19T11:23:18;20.80;99.90
6988;DHT22;3534;49.960;8.018;2023-09-19T11:25:50;21.00;99.90
6988;DHT22;3534;49.960;8.018;2023-09-19T11:28:32;21.10;99.90
6988;DHT22;3534;49.960;8.018;2023-09-19T11:40:10;21.70;99.90
6988;DHT22;3534;49.960;8.018;2023-09-19T11:42:42;21.90;99.90
6988;DHT22;3534;49.960;8.018;2023-09-19T11:48:12;22.30;99.90
6988;DHT22;3534;49.960;8.018;2023-09-19T11:50:39;22.60;99.90
6988;DHT22;3534;49.960;8.018;2023-09-19T11:53:10;22.80;99.90
6988;DHT22;3534;49.960;8.018;2023-09-19T11:55:37;23.00;99.90
6988;DHT22;3534;49.960;8.018;2023-09-19T11:58:04;23.20;99.90
6988;DHT22;3534;49.960;8.018;2023-09-19T12:00:31;23.40;99.90
6988;DHT22;3534;49.960;8.018;2023-09-19T12:03:04;23.50;99.90
6988;DHT22;3534;49.960;8.018;2023-09-19T12:05:32;23.70;99.90
6988;DHT22;3534;49.960;8.018;2023-09-19T12:08:00;23.90;99.90
6988;DHT22;3534;49.960;8.018;2023-09-19T12:10:30;24.10;99.90
6988;DHT22;3534;49.960;8.018;2023-09-19T12:12:57;24.20;99.90
6988;DHT22;3534;49.960;8.018;2023-09-19T12:15:25;24.30;99.90
6988;DHT22;3534;49.960;8.018;2023-09-19T12:17:54;24.50;99.90
6988;DHT22;3534;49.960;8.018;2023-09-19T12:20:21;24.70;99.90
6988;DHT22;3534;49.960;8.018;2023-09-19T12:22:48;24.90;99.90
6988;DHT22;3534;49.960;8.018;2023-09-19T12:25:15;25.10;99.90
6988;DHT22;3534;49.960;8.018;2023-09-19T12:27:46;25.30;99.90
6988;DHT22;3534;49.960;8.018;2023-09-19T12:30:14;25.50;99.90
6988;DHT22;3534;49.960;8.018;2023-09-19T12:32:43;25.70;99.90
6988;DHT22;3534;49.960;8.018;2023-09-19T12:35:10;25.80;99.90
6988;DHT22;3534;49.960;8.018;2023-09-19T12:37:54;26.00;99.90
6988;DHT22;3534;49.960;8.018;2023-09-19T12:40:22;26.20;99.70
6988;DHT22;3534;49.960;8.018;2023-09-19T12:42:55;26.30;99.20
6988;DHT22;3534;49.960;8.018;2023-09-19T12:45:24;26.20;98.90
6988;DHT22;3534;49.960;8.018;2023-09-19T12:48:19;26.30;98.20
6988;DHT22;3534;49.960;8.018;2023-09-19T12:51:00;26.40;97.80
6988;DHT22;3534;49.960;8.018;2023-09-19T12:53:31;26.50;97.70
6988;DHT22;3534;49.960;8.018;2023-09-19T12:55:59;26.50;96.80
6988;DHT22;3534;49.960;8.018;2023-09-19T12:58:28;26.60;96.10
6988;DHT22;3534;49.960;8.018;2023-09-19T13:00:57;26.70;96.20
6988;DHT22;3534;49.960;8.018;2023-09-19T13:03:26;26.70;96.00
6988;DHT22;3534;49.960;8.018;2023-09-19T13:05:54;26.80;95.40
6988;DHT22;3534;49.960;8.018;2023-09-19T13:08:24;26.70;95.30
6988;DHT22;3534;49.960;8.018;2023-09-19T13:11:05;26.70;95.90
6988;DHT22;3534;49.960;8.018;2023-09-19T13:13:37;26.80;96.10
6988;DHT22;3534;49.960;8.018;2023-09-19T13:16:04;27.00;94.80
6988;DHT22;3534;49.960;8.018;2023-09-19T13:18:44;27.20;93.70
6988;DHT22;3534;49.960;8.018;2023-09-19T13:21:12;27.20;93.80
6988;DHT22;3534;49.960;8.018;2023-09-19T13:23:49;27.20;93.70
6988;DHT22;3534;49.960;8.018;2023-09-19T13:26:16;27.20;93.90
6988;DHT22;3534;49.960;8.018;2023-09-19T13:28:44;27.30;93.30
6988;DHT22;3534;49.960;8.018;2023-09-19T13:31:13;27.40;93.20
6988;DHT22;3534;49.960;8.018;2023-09-19T13:33:43;27.50;93.30
6988;DHT22;3534;49.960;8.018;2023-09-19T13:36:10;27.50;92.00
6988;DHT22;3534;49.960;8.018;2023-09-19T13:38:38;27.50;92.00
6988;DHT22;3534;49.960;8.018;2023-09-19T13:41:05;27.50;92.10
6988;DHT22;3534;49.960;8.018;2023-09-19T13:43:32;27.50;92.40
6988;DHT22;3534;49.960;8.018;2023-09-19T13:46:00;27.60;92.00
6988;DHT22;3534;49.960;8.018;2023-09-19T13:48:28;27.60;92.20
6988;DHT22;3534;49.960;8.018;2023-09-19T13:50:55;27.60;91.40
6988;DHT22;3534;49.960;8.018;2023-09-19T13:53:22;27.40;90.90
6988;DHT22;3534;49.960;8.018;2023-09-19T13:55:48;27.30;91.30
6988;DHT22;3534;49.960;8.018;2023-09-19T13:58:15;27.10;91.80
6988;DHT22;3534;49.960;8.018;2023-09-19T14:00:42;27.00;92.00
6988;DHT22;3534;49.960;8.018;2023-09-19T14:03:10;27.00;91.50
6988;DHT22;3534;49.960;8.018;2023-09-19T14:05:37;27.00;91.40
6988;DHT22;3534;49.960;8.018;2023-09-19T14:08:05;27.00;91.70
6988;DHT22;3534;49.960;8.018;2023-09-19T14:10:32;27.00;92.30
6988;DHT22;3534;49.960;8.018;2023-09-19T14:12:58;27.10;92.10
6988;DHT22;3534;49.960;8.018;2023-09-19T14:15:26;27.10;92.30
6988;DHT22;3534;49.960;8.018;2023-09-19T14:17:56;27.10;92.20
6988;DHT22;3534;49.960;8.018;2023-09-19T14:20:27;27.10;92.30
6988;DHT22;3534;49.960;8.018;2023-09-19T14:22:54;27.30;92.00
6988;DHT22;3534;49.960;8.018;2023-09-19T14:25:21;27.50;92.10
6988;DHT22;3534;49.960;8.018;2023-09-19T14:27:48;27.60;91.70
6988;DHT22;3534;49.960;8.018;2023-09-19T14:30:15;27.80;91.80
6988;DHT22;3534;49.960;8.018;2023-09-19T14:32:41;28.00;91.90
6988;DHT22;3534;49.960;8.018;2023-09-19T14:35:08;28.10;91.70
6988;DHT22;3534;49.960;8.018;2023-09-19T14:37:37;28.40;92.20
6988;DHT22;3534;49.960;8.018;2023-09-19T14:40:06;28.60;91.60
6988;DHT22;3534;49.960;8.018;2023-09-19T14:42:35;28.80;91.40
6988;DHT22;3534;49.960;8.018;2023-09-19T14:45:04;29.00;91.40
6988;DHT22;3534;49.960;8.018;2023-09-19T14:47:31;29.10;90.60
6988;DHT22;3534;49.960;8.018;2023-09-19T14:49:59;29.20;89.90
6988;DHT22;3534;49.960;8.018;2023-09-19T14:52:26;29.30;90.10
6988;DHT22;3534;49.960;8.018;2023-09-19T14:54:55;29.40;88.90
6988;DHT22;3534;49.960;8.018;2023-09-19T14:57:22;29.50;89.00
6988;DHT22;3534;49.960;8.018;2023-09-19T14:59:50;29.60;89.30
6988;DHT22;3534;49.960;8.018;2023-09-19T15:02:17;29.60;89.10
6988;DHT22;3534;49.960;8.018;2023-09-19T15:04:43;29.70;88.90
6988;DHT22;3534;49.960;8.018;2023-09-19T15:07:12;29.60;88.00
6988;DHT22;3534;49.960;8.018;2023-09-19T15:09:40;29.60;88.50
6988;DHT22;3534;49.960;8.018;2023-09-19T15:12:08;29.50;87.80
6988;DHT22;3534;49.960;8.018;2023-09-19T15:14:35;29.60;88.90
6988;DHT22;3534;49.960;8.018;2023-09-19T15:17:02;29.70;88.80
6988;DHT22;3534;49.960;8.018;2023-09-19T15:19:30;29.60;88.00
6988;DHT22;3534;49.960;8.018;2023-09-19T15:21:57;29.40;88.60
6988;DHT22;3534;49.960;8.018;2023-09-19T15:24:24;29.20;88.70
6988;DHT22;3534;49.960;8.018;2023-09-19T15:26:52;29.00;89.00
6988;DHT22;3534;49.960;8.018;2023-09-19T15:29:22;29.00;89.40
6988;DHT22;3534;49.960;8.018;2023-09-19T15:31:49;28.90;89.80
6988;DHT22;3534;49.960;8.018;2023-09-19T15:34:16;28.80;89.80
6988;DHT22;3534;49.960;8.018;2023-09-19T15:36:42;28.70;90.20
6988;DHT22;3534;49.960;8.018;2023-09-19T15:39:10;28.70;90.60
6988;DHT22;3534;49.960;8.018;2023-09-19T15:41:38;28.60;90.50
6988;DHT22;3534;49.960;8.018;2023-09-19T15:44:11;28.60;91.00
6988;DHT22;3534;49.960;8.018;2023-09-19T15:46:40;28.60;91.30
6988;DHT22;3534;49.960;8.018;2023-09-19T15:49:07;28.50;91.50
6988;DHT22;3534;49.960;8.018;2023-09-19T15:51:34;28.40;91.80
6988;DHT22;3534;49.960;8.018;2023-09-19T15:54:08;28.30;91.60
6988;DHT22;3534;49.960;8.018;2023-09-19T15:56:35;28.10;91.90
6988;DHT22;3534;49.960;8.018;2023-09-19T15:59:02;27.80;92.00
6988;DHT22;3534;49.960;8.018;2023-09-19T16:01:29;27.40;92.40
6988;DHT22;3534;49.960;8.018;2023-09-19T16:03:57;27.10;93.10
6988;DHT22;3534;49.960;8.018;2023-09-19T16:06:25;26.90;93.70
6988;DHT22;3534;49.960;8.018;2023-09-19T16:08:55;26.60;93.90
6988;DHT22;3534;49.960;8.018;2023-09-19T16:11:24;26.40;94.40
6988;DHT22;3534;49.960;8.018;2023-09-19T16:13:52;26.20;94.70
6988;DHT22;3534;49.960;8.018;2023-09-19T16:16:20;26.00;95.30
6988;DHT22;3534;49.960;8.018;2023-09-19T16:18:49;25.80;95.80
6988;DHT22;3534;49.960;8.018;2023-09-19T16:21:19;25.70;96.40
6988;DHT22;3534;49.960;8.018;2023-09-19T16:23:46;25.60;96.90
6988;DHT22;3534;49.960;8.018;2023-09-19T16:26:12;25.50;97.70
6988;DHT22;3534;49.960;8.018;2023-09-19T16:28:40;25.40;97.60